Weather observations for the past three days for
Jonesboro, Jonesboro Municipal Airport
| Date | Time (cdt) | Wind (mph) | Vis. (mi.) | Weather | Sky Cond. | Temperature (ºF) | Relative Humidity | Wind Chill (°F) | Heat Index (°F) | Pressure | Precipitation (in) | ||||||
|---|---|---|---|---|---|---|---|---|---|---|---|---|---|---|---|---|---|
| Air | Dwpt | 6 hour | altimeter (in) | sea level (mb) | 1 hr | 3 hr | 6 hr | ||||||||||
| Max. | Min. | ||||||||||||||||
| 04 | 21:53 | S 9 | 10.00 | Fair | CLR | 70 | 50 | 49% | 29.8 | 1008.8 | |||||||
| 04 | 20:53 | S 10 | 10.00 | Fair | CLR | 70 | 51.1 | 51% | 29.78 | 1008.2 | |||||||
| 04 | 19:53 | S 13 | 10.00 | Fair | CLR | 73 | 52 | 48% | 29.77 | 1007.9 | |||||||
| 04 | 18:53 | SW 20 G 29 | 10.00 | Fair | CLR | 77 | 51.1 | 82 | 77 | 40% | 78 | 29.77 | 1007.9 | ||||
| 04 | 17:53 | SW 21 G 30 | 10.00 | Fair and Breezy | CLR | 79 | 51.1 | 38% | 79 | 29.79 | 1008.3 | ||||||
| 04 | 16:53 | SW 17 G 26 | 10.00 | Fair | CLR | 81 | 52 | 37% | 80 | 29.79 | 1008.4 | ||||||
| 04 | 15:53 | SW 25 G 32 | 10.00 | A Few Clouds and Breezy | FEW065 | 81 | 51.1 | 35% | 80 | 29.81 | 1009.0 | ||||||
| 04 | 14:53 | SW 24 G 40 | 10.00 | Light Rain and Breezy | CLR | 81 | 50 | 34% | 80 | 29.83 | 1009.7 | ||||||
| 04 | 13:53 | SW 25 G 35 | 10.00 | Light Rain and Breezy | CLR | 81 | 48.9 | 33% | 80 | 29.85 | 1010.5 | ||||||
| 04 | 12:53 | SW 26 G 37 | 0.00 | Light Rain and Windy | NULL | 80.1 | 48.9 | 81 | 62.1 | 34% | 79 | 29.86 | 1011.0 | ||||
| 04 | 11:53 | SW 20 G 33 | 10.00 | Light Rain | CLR | 79 | 51.1 | 38% | 79 | 29.88 | 1011.5 | ||||||
| 04 | 10:53 | SW 21 G 28 | 10.00 | Fair and Breezy | CLR | 77 | 52 | 42% | 78 | 29.91 | 1012.4 | ||||||
| 04 | 09:53 | SW 15 | 10.00 | Fair | CLR | 73.9 | 52 | 46% | 29.91 | 1012.6 | |||||||
| 04 | 08:53 | SW 15 | 10.00 | Fair | CLR | 69.1 | 53.1 | 57% | 29.91 | 1012.8 | |||||||
| 04 | 07:53 | SW 14 | 10.00 | Fair | CLR | 64.9 | 53.1 | 66% | 29.91 | 1012.6 | |||||||
| 04 | 06:53 | SW 10 | 10.00 | Fair | CLR | 62.1 | 52 | 66 | 61 | 70% | 29.9 | 1012.4 | |||||
| 04 | 05:53 | SW 9 | 10.00 | Fair | CLR | 61 | 52 | 72% | 29.89 | 1011.9 | |||||||
| 04 | 04:53 | SW 10 | 10.00 | Fair | CLR | 63 | 51.1 | 65% | 29.89 | 1011.9 | |||||||
| 04 | 03:53 | SW 13 | 10.00 | Fair | CLR | 64.9 | 51.1 | 61% | 29.89 | 1011.9 | |||||||
| 04 | 02:53 | SW 12 | 10.00 | Fair | CLR | 64.9 | 50 | 59% | 29.9 | 1012.2 | |||||||
| 04 | 01:53 | SW 12 | 10.00 | Fair | CLR | 64.9 | 50 | 59% | 29.92 | 1012.9 | |||||||
| 04 | 00:53 | SW 8 | 10.00 | Fair | CLR | 63 | 50 | 73 | 61 | 63% | 29.94 | 1013.7 | |||||
| 03 | 23:53 | SW 7 | 10.00 | Fair | CLR | 63 | 48.9 | 60% | 29.95 | 1014.0 | |||||||
| 03 | 22:53 | S 7 | 10.00 | Fair | CLR | 62.1 | 50 | 65% | 29.96 | 1014.2 | |||||||
| 03 | 21:53 | S 7 | 10.00 | Fair | CLR | 64 | 50 | 60% | 29.96 | 1014.3 | |||||||
| 03 | 20:53 | S 8 | 10.00 | Fair | CLR | 64.9 | 51.1 | 61% | 29.96 | 1014.2 | |||||||
| 03 | 19:53 | S 8 | 10.00 | Fair | CLR | 69.1 | 48.9 | 49% | 29.95 | 1013.8 | |||||||
| 03 | 18:53 | S 12 | 10.00 | Fair | CLR | 73 | 48 | 75.9 | 71.1 | 41% | 29.96 | 1014.5 | |||||
| 03 | 17:53 | SW 15 | 10.00 | Fair | CLR | 75 | 46.9 | 37% | 77 | 29.98 | 1014.9 | ||||||
| 03 | 16:53 | S 16 G 25 | 10.00 | Fair | CLR | 75 | 46 | 36% | 77 | 29.99 | 1015.5 | ||||||
| 03 | 15:53 | SW 15 G 25 | 10.00 | Fair | CLR | 75 | 45 | 34% | 77 | 30.02 | 1016.4 | ||||||
| 03 | 14:53 | SW 10 G 23 | 10.00 | Fair | CLR | 73 | 45 | 37% | 30.06 | 1017.8 | |||||||
| 03 | 13:53 | S 12 G 25 | 10.00 | Fair | CLR | 73 | 43 | 34% | 30.09 | 1018.7 | |||||||
| 03 | 12:53 | SW 18 G 25 | 10.00 | Fair | CLR | 71.1 | 41 | 72 | 46.9 | 34% | 30.12 | 1019.7 | |||||
| 03 | 11:53 | S 15 | 10.00 | Fair | CLR | 70 | 43 | 38% | 30.15 | 1020.9 | |||||||
| 03 | 10:53 | S 12 G 21 | 10.00 | Fair | CLR | 66 | 43 | 43% | 30.17 | 1021.5 | |||||||
| 03 | 09:53 | S 15 | 10.00 | Fair | CLR | 63 | 42.1 | 47% | 30.18 | 1021.7 | |||||||
| 03 | 08:53 | S 13 | 10.00 | Fair | CLR | 59 | 43 | 56% | 30.18 | 1021.8 | |||||||
| 03 | 07:53 | S 6 | 10.00 | Fair | CLR | 54 | 45 | 72% | 30.18 | 1021.9 | |||||||
| 03 | 06:53 | Calm | 10.00 | Fair | CLR | 46.9 | 41 | 50 | 43 | 80% | 30.17 | 1021.4 | |||||
| 03 | 05:53 | Calm | 10.00 | Fair | CLR | 45 | 39.9 | 83% | 30.15 | 1020.7 | |||||||
| 03 | 04:53 | Calm | 10.00 | Fair | CLR | 43 | 39 | 86% | 30.15 | 1020.7 | |||||||
| 03 | 03:53 | Calm | 10.00 | Fair | CLR | 44.1 | 39 | 83% | 30.15 | 1020.9 | |||||||
| 03 | 02:53 | Calm | 10.00 | Fair | CLR | 46 | 39.9 | 79% | 30.14 | 1020.7 | |||||||
| 03 | 01:53 | Calm | 10.00 | Fair | CLR | 50 | 39.9 | 68% | 30.15 | 1020.6 | |||||||
| 03 | 00:53 | NE 6 | 10.00 | Fair | CLR | 50 | 41 | 68 | 50 | 71% | 48 | 30.15 | 1020.6 | ||||
| 02 | 23:53 | NE 8 | 10.00 | Fair | CLR | 52 | 41 | 66% | 30.14 | 1020.4 | |||||||
| 02 | 22:53 | NE 7 | 10.00 | Fair | CLR | 52 | 41 | 66% | 30.13 | 1020.1 | |||||||
| 02 | 21:53 | N 6 | 10.00 | Fair | CLR | 55.9 | 36 | 47% | 30.11 | 1019.5 | |||||||
| 02 | 20:53 | N 3 | 10.00 | Fair | CLR | 57 | 37 | 47% | 30.09 | 1018.8 | |||||||
| 02 | 19:53 | N 5 | 10.00 | Fair | CLR | 62.1 | 35.1 | 37% | 30.07 | 1018.3 | |||||||
| 02 | 18:53 | N 9 | 10.00 | Fair | CLR | 68 | 33.1 | 73 | 68 | 27% | 30.06 | 1017.7 | |||||
| 02 | 17:53 | NW 7 | 10.00 | Fair | CLR | 70 | 34 | 27% | 30.05 | 1017.5 | |||||||
| 02 | 16:53 | N 14 G 22 | 10.00 | Fair | CLR | 70 | 35.1 | 28% | 30.04 | 1017.3 | |||||||
| 02 | 15:53 | NW 14 G 22 | 10.00 | A Few Clouds | FEW090 | 72 | 36 | 27% | 30.04 | 1017.1 | |||||||
| 02 | 14:53 | NW 10 G 21 | 10.00 | Overcast | BKN090 OVC100 | 70 | 37 | 30% | 30.05 | 1017.5 | |||||||
| 02 | 13:53 | NW 12 G 23 | 10.00 | Mostly Cloudy | BKN095 | 69.1 | 37 | 31% | 30.06 | 1017.7 | |||||||
| 02 | 12:53 | NW 15 G 26 | 10.00 | A Few Clouds | FEW075 | 70 | 36 | 71.1 | 50 | 29% | 30.07 | 1018.1 | |||||
| 02 | 11:53 | NW 9 G 18 | 10.00 | Fair | CLR | 70 | 39.9 | 34% | 30.09 | 1018.6 | |||||||
| 02 | 10:53 | W 12 | 10.00 | Fair | CLR | 66.9 | 39 | 36% | 30.09 | 1018.7 | |||||||
| 02 | 09:53 | W 9 | 10.00 | Fair | CLR | 64 | 42.1 | 45% | 30.1 | 1018.9 | |||||||
| 02 | 08:53 | W 9 | 10.00 | Fair | CLR | 62.1 | 39.9 | 44% | 30.09 | 1018.7 | |||||||
| 02 | 07:53 | W 5 | 10.00 | Fair | CLR | 55.9 | 45 | 67% | 30.08 | 1018.6 | |||||||
| 02 | 06:53 | W 5 | 10.00 | Fair | CLR | 48.9 | 43 | 53.1 | 45 | 80% | 48 | 30.06 | 1018.0 | ||||
| 02 | 05:53 | Calm | 10.00 | Fair | CLR | 45 | 39.9 | 83% | 30.05 | 1017.4 | |||||||
| 02 | 04:53 | Calm | 10.00 | Fair | CLR | 45 | 39.9 | 83% | 30.05 | 1017.3 | |||||||
| 02 | 03:53 | Calm | 10.00 | Fair | CLR | 48 | 39.9 | 74% | 30.04 | 1017.1 | |||||||
| 02 | 02:53 | Calm | 10.00 | Fair | CLR | 50 | 42.1 | 74% | 30.03 | 1016.9 | |||||||
| 02 | 01:53 | Calm | 10.00 | Fair | CLR | 50 | 43 | 77% | 30.05 | 1017.6 | |||||||
| 02 | 00:53 | Calm | 10.00 | Fair | CLR | 51.1 | 42.1 | 63 | 51.1 | 71% | 30.07 | 1018.0 | |||||
| 01 | 23:53 | N 5 | 10.00 | Fair | CLR | 54 | 41 | 62% | 30.05 | 1017.5 | |||||||
| 01 | 22:53 | N 5 | 10.00 | Fair | CLR | 54 | 44.1 | 69% | 30.04 | 1017.2 | |||||||
| Date | Time (cdt) | Wind (mph) | Vis. (mi.) | Weather | Sky Cond. | Air | Dwpt | Max. | Min. | Relative Humidity | Wind Chill (°F) | Heat Index (°F) | altimeter (in) | sea level (mb) | 1 hr | 3 hr | 6 hr |
| 6 hour | |||||||||||||||||
| Temperature (ºF) | Pressure | Precipitation (in) | |||||||||||||||